Time;durP1;ratioP1;P1;durP2;ratioP2;P2;SDS_P1;SDS_P2;PMS_P1;PMS_P2;Temp;Humidity;BMP_temperature;BMP_pressure;BME280_temperature;BME280_humidity;BME280_pressure;Samples;Min_cycle;Max_cycle;Signal;HPM_P1;HPM_P2
2022/09/25 00:00:30;;;;;;;10.95;9.349998;;;;;;;10.11;82.42676;94935.93;;;;
2022/09/25 00:01:31;;;;;;;10.95;9.349998;;;;;;;10.11;82.42676;94935.93;;;;
2022/09/25 00:02:31;;;;;;;10.95;9.349998;;;;;;;10.11;82.42676;94935.93;;;;
2022/09/25 00:03:32;;;;;;;10.95;9.349998;;;;;;;10.11;82.42676;94935.93;;;;
2022/09/25 00:04:33;;;;;;;10.95;9.349998;;;;;;;10.11;82.42676;94935.93;;;;
2022/09/25 00:05:33;;;;;;;10.95;9.349998;;;;;;;10.11;82.42676;94935.93;;;;
2022/09/25 00:06:34;;;;;;;10.95;9.349998;;;;;;;10.11;82.42676;94935.93;;;;
2022/09/25 00:07:34;;;;;;;11.15;9.9;;;;;;;9.92;82.60645;94936.86;;;;
2022/09/25 00:08:35;;;;;;;11.15;9.9;;;;;;;9.92;82.60645;94936.86;;;;
2022/09/25 00:09:36;;;;;;;11.15;9.9;;;;;;;9.92;82.60645;94936.86;;;;
2022/09/25 00:10:37;;;;;;;11.15;9.9;;;;;;;9.92;82.60645;94936.86;;;;
2022/09/25 00:11:39;;;;;;;11.15;9.9;;;;;;;9.92;82.60645;94936.86;;;;
2022/09/25 00:12:41;;;;;;;11.15;9.9;;;;;;;9.92;82.60645;94936.86;;;;
2022/09/25 00:13:41;;;;;;;11.15;9.9;;;;;;;9.92;82.60645;94936.86;;;;
2022/09/25 00:14:43;;;;;;;11.15;9.9;;;;;;;9.92;82.60645;94936.86;;;;
2022/09/25 00:15:43;;;;;;;11.15;9.9;;;;;;;9.92;82.60645;94936.86;;;;
2022/09/25 00:16:46;;;;;;;11.15;9.9;;;;;;;9.92;82.60645;94936.86;;;;
2022/09/25 00:17:46;;;;;;;11.25;9.85;;;;;;;9.74;82.70117;94929.69;;;;
2022/09/25 00:19:51;;;;;;;11.25;9.85;;;;;;;9.74;82.70117;94929.69;;;;
2022/09/25 00:20:52;;;;;;;11.25;9.85;;;;;;;9.74;82.70117;94929.69;;;;
2022/09/25 00:21:59;;;;;;;11.25;9.85;;;;;;;9.74;82.70117;94929.69;;;;
2022/09/25 00:23:01;;;;;;;11.25;9.85;;;;;;;9.74;82.70117;94929.69;;;;
2022/09/25 00:24:02;;;;;;;11.25;9.85;;;;;;;9.74;82.70117;94929.69;;;;
2022/09/25 00:25:05;;;;;;;11.25;9.85;;;;;;;9.74;82.70117;94929.69;;;;
2022/09/25 00:26:07;;;;;;;11.25;9.85;;;;;;;9.74;82.70117;94929.69;;;;
2022/09/25 00:27:08;;;;;;;11.25;9.85;;;;;;;9.74;82.70117;94929.69;;;;
2022/09/25 00:28:09;;;;;;;11.25;9.85;;;;;;;9.74;82.70117;94929.69;;;;
2022/09/25 00:29:10;;;;;;;11.65;9.299998;;;;;;;9.65;82.54395;94913.94;;;;
2022/09/25 00:30:15;;;;;;;11.65;9.299998;;;;;;;9.65;82.54395;94913.94;;;;
2022/09/25 00:31:15;;;;;;;11.65;9.299998;;;;;;;9.65;82.54395;94913.94;;;;
2022/09/25 00:32:18;;;;;;;11.65;9.299998;;;;;;;9.65;82.54395;94913.94;;;;
2022/09/25 00:33:19;;;;;;;11.65;9.299998;;;;;;;9.65;82.54395;94913.94;;;;
2022/09/25 00:34:19;;;;;;;11.65;9.299998;;;;;;;9.65;82.54395;94913.94;;;;
2022/09/25 00:35:20;;;;;;;11.65;9.299998;;;;;;;9.65;82.54395;94913.94;;;;
2022/09/25 00:36:20;;;;;;;11.65;9.299998;;;;;;;9.65;82.54395;94913.94;;;;
2022/09/25 00:37:21;;;;;;;11.65;9.299998;;;;;;;9.65;82.54395;94913.94;;;;
2022/09/25 00:38:22;;;;;;;11.65;9.299998;;;;;;;9.65;82.54395;94913.94;;;;
2022/09/25 00:39:22;;;;;;;11.9;9.6;;;;;;;9.45;82.4873;94907.89;;;;
2022/09/25 00:40:24;;;;;;;11.9;9.6;;;;;;;9.45;82.4873;94907.89;;;;
2022/09/25 00:41:24;;;;;;;11.9;9.6;;;;;;;9.45;82.4873;94907.89;;;;
2022/09/25 00:42:27;;;;;;;11.9;9.6;;;;;;;9.45;82.4873;94907.89;;;;
2022/09/25 00:43:27;;;;;;;11.9;9.6;;;;;;;9.45;82.4873;94907.89;;;;
2022/09/25 00:44:38;;;;;;;11.9;9.6;;;;;;;9.45;82.4873;94907.89;;;;
2022/09/25 00:45:51;;;;;;;11.9;9.6;;;;;;;9.45;82.4873;94907.89;;;;
2022/09/25 00:46:51;;;;;;;11.9;9.6;;;;;;;9.45;82.4873;94907.89;;;;
2022/09/25 00:47:52;;;;;;;11.9;9.6;;;;;;;9.45;82.4873;94907.89;;;;
2022/09/25 00:48:58;;;;;;;11.9;9.6;;;;;;;9.45;82.4873;94907.89;;;;
2022/09/25 00:50:02;;;;;;;11.1;9.349999;;;;;;;9.29;82.58398;94904.96;;;;
2022/09/25 00:51:15;;;;;;;11.1;9.349999;;;;;;;9.29;82.58398;94904.96;;;;
2022/09/25 00:52:19;;;;;;;11.1;9.349999;;;;;;;9.29;82.58398;94904.96;;;;
2022/09/25 00:53:22;;;;;;;11.1;9.349999;;;;;;;9.29;82.58398;94904.96;;;;
2022/09/25 00:54:26;;;;;;;11.1;9.349999;;;;;;;9.29;82.58398;94904.96;;;;
2022/09/25 00:55:30;;;;;;;11.1;9.349999;;;;;;;9.29;82.58398;94904.96;;;;
2022/09/25 00:56:33;;;;;;;11.1;9.349999;;;;;;;9.29;82.58398;94904.96;;;;
2022/09/25 00:57:38;;;;;;;11.1;9.349999;;;;;;;9.29;82.58398;94904.96;;;;
2022/09/25 00:58:41;;;;;;;11.1;9.349999;;;;;;;9.29;82.58398;94904.96;;;;
2022/09/25 00:59:42;;;;;;;11.1;9.349999;;;;;;;9.29;82.58398;94904.96;;;;
2022/09/25 01:00:46;;;;;;;11.1;9.9;;;;;;;9.21;82.53418;94899.56;;;;
2022/09/25 01:01:47;;;;;;;11.1;9.9;;;;;;;9.21;82.53418;94899.56;;;;
2022/09/25 01:02:48;;;;;;;11.1;9.9;;;;;;;9.21;82.53418;94899.56;;;;
2022/09/25 01:03:52;;;;;;;11.1;9.9;;;;;;;9.21;82.53418;94899.56;;;;
2022/09/25 01:04:53;;;;;;;11.1;9.9;;;;;;;9.21;82.53418;94899.56;;;;
2022/09/25 01:05:59;;;;;;;11.1;9.9;;;;;;;9.21;82.53418;94899.56;;;;
2022/09/25 01:07:00;;;;;;;11.1;9.9;;;;;;;9.21;82.53418;94899.56;;;;
2022/09/25 01:08:01;;;;;;;11.1;9.9;;;;;;;9.21;82.53418;94899.56;;;;
2022/09/25 01:09:04;;;;;;;11.1;9.9;;;;;;;9.21;82.53418;94899.56;;;;
2022/09/25 01:10:07;;;;;;;11.1;9.9;;;;;;;9.21;82.53418;94899.56;;;;
2022/09/25 01:11:08;;;;;;;11.1;9.9;;;;;;;9.21;82.53418;94899.56;;;;
2022/09/25 01:12:09;;;;;;;12.65;11.1;;;;;;;9.12;82.4873;94904.69;;;;
2022/09/25 01:13:09;;;;;;;12.65;11.1;;;;;;;9.12;82.4873;94904.69;;;;
2022/09/25 01:14:15;;;;;;;12.65;11.1;;;;;;;9.12;82.4873;94904.69;;;;
2022/09/25 01:15:16;;;;;;;12.65;11.1;;;;;;;9.12;82.4873;94904.69;;;;
2022/09/25 01:16:20;;;;;;;12.65;11.1;;;;;;;9.12;82.4873;94904.69;;;;
2022/09/25 01:17:26;;;;;;;12.65;11.1;;;;;;;9.12;82.4873;94904.69;;;;
2022/09/25 01:18:31;;;;;;;12.65;11.1;;;;;;;9.12;82.4873;94904.69;;;;
2022/09/25 01:19:43;;;;;;;12.65;11.1;;;;;;;9.12;82.4873;94904.69;;;;
2022/09/25 01:20:59;;;;;;;12.65;11.1;;;;;;;9.12;82.4873;94904.69;;;;
2022/09/25 01:22:13;;;;;;;11.25;10.05;;;;;;;9.17;82.45215;94879.91;;;;
2022/09/25 01:23:26;;;;;;;11.25;10.05;;;;;;;9.17;82.45215;94879.91;;;;
2022/09/25 01:24:50;;;;;;;11.25;10.05;;;;;;;9.17;82.45215;94879.91;;;;
2022/09/25 01:26:08;;;;;;;11.25;10.05;;;;;;;9.17;82.45215;94879.91;;;;
2022/09/25 01:27:25;;;;;;;11.25;10.05;;;;;;;9.17;82.45215;94879.91;;;;
2022/09/25 01:28:41;;;;;;;11.25;10.05;;;;;;;9.17;82.45215;94879.91;;;;
2022/09/25 01:29:56;;;;;;;11.25;10.05;;;;;;;9.17;82.45215;94879.91;;;;
2022/09/25 01:31:03;;;;;;;11.25;10.05;;;;;;;9.17;82.45215;94879.91;;;;
2022/09/25 01:32:15;;;;;;;11.25;10.05;;;;;;;9.17;82.45215;94879.91;;;;
2022/09/25 01:33:21;;;;;;;11.25;10.05;;;;;;;9.17;82.45215;94879.91;;;;
2022/09/25 01:34:26;;;;;;;11.25;10.05;;;;;;;9.17;82.45215;94879.91;;;;
2022/09/25 01:35:36;;;;;;;11.25;10.05;;;;;;;9.17;82.45215;94879.91;;;;
2022/09/25 01:36:48;;;;;;;11.25;10.05;;;;;;;9.17;82.45215;94879.91;;;;
2022/09/25 01:37:56;;;;;;;11.25;10.05;;;;;;;9.17;82.45215;94879.91;;;;
2022/09/25 01:39:01;;;;;;;11.25;10.05;;;;;;;9.17;82.45215;94879.91;;;;
2022/09/25 01:40:09;;;;;;;11.25;10.05;;;;;;;9.17;82.45215;94879.91;;;;
2022/09/25 01:41:16;;;;;;;11.25;10.05;;;;;;;9.17;82.45215;94879.91;;;;
2022/09/25 01:42:21;;;;;;;11.25;10.05;;;;;;;9.17;82.45215;94879.91;;;;
2022/09/25 01:43:26;;;;;;;11.15;9.95;;;;;;;9.05;82.64453;94873.18;;;;
2022/09/25 01:44:34;;;;;;;11.15;9.95;;;;;;;9.05;82.64453;94873.18;;;;
2022/09/25 01:45:40;;;;;;;11.15;9.95;;;;;;;9.05;82.64453;94873.18;;;;
2022/09/25 01:46:45;;;;;;;11.15;9.95;;;;;;;9.05;82.64453;94873.18;;;;
2022/09/25 01:47:49;;;;;;;11.15;9.95;;;;;;;9.05;82.64453;94873.18;;;;
2022/09/25 01:48:52;;;;;;;11.15;9.95;;;;;;;9.05;82.64453;94873.18;;;;
2022/09/25 01:49:57;;;;;;;11.15;9.95;;;;;;;9.05;82.64453;94873.18;;;;
2022/09/25 01:50:59;;;;;;;11.15;9.95;;;;;;;9.05;82.64453;94873.18;;;;
2022/09/25 01:52:03;;;;;;;11.15;9.95;;;;;;;9.05;82.64453;94873.18;;;;
2022/09/25 01:53:10;;;;;;;11.15;9.95;;;;;;;9.05;82.64453;94873.18;;;;
2022/09/25 01:54:15;;;;;;;11.15;9.75;;;;;;;9.07;82.58398;94877.73;;;;
2022/09/25 01:55:21;;;;;;;11.15;9.75;;;;;;;9.07;82.58398;94877.73;;;;
2022/09/25 01:56:31;;;;;;;11.15;9.75;;;;;;;9.07;82.58398;94877.73;;;;
2022/09/25 01:57:37;;;;;;;11.15;9.75;;;;;;;9.07;82.58398;94877.73;;;;
2022/09/25 01:58:42;;;;;;;11.15;9.75;;;;;;;9.07;82.58398;94877.73;;;;
2022/09/25 01:59:50;;;;;;;11.15;9.75;;;;;;;9.07;82.58398;94877.73;;;;
2022/09/25 02:00:56;;;;;;;11.15;9.75;;;;;;;9.07;82.58398;94877.73;;;;
2022/09/25 02:02:02;;;;;;;11.15;9.75;;;;;;;9.07;82.58398;94877.73;;;;
2022/09/25 02:03:07;;;;;;;11.15;9.75;;;;;;;9.07;82.58398;94877.73;;;;
2022/09/25 02:04:12;;;;;;;11.15;9.75;;;;;;;9.07;82.58398;94877.73;;;;
2022/09/25 02:05:17;;;;;;;10.4;9.249999;;;;;;;8.95;82.49707;94868.5;;;;
2022/09/25 02:06:22;;;;;;;10.4;9.249999;;;;;;;8.95;82.49707;94868.5;;;;
2022/09/25 02:07:24;;;;;;;10.4;9.249999;;;;;;;8.95;82.49707;94868.5;;;;
2022/09/25 02:08:29;;;;;;;10.4;9.249999;;;;;;;8.95;82.49707;94868.5;;;;
2022/09/25 02:09:36;;;;;;;10.4;9.249999;;;;;;;8.95;82.49707;94868.5;;;;
2022/09/25 02:10:43;;;;;;;10.4;9.249999;;;;;;;8.95;82.49707;94868.5;;;;
2022/09/25 02:11:48;;;;;;;10.4;9.249999;;;;;;;8.95;82.49707;94868.5;;;;
2022/09/25 02:12:56;;;;;;;10.4;9.249999;;;;;;;8.95;82.49707;94868.5;;;;
2022/09/25 02:14:04;;;;;;;10.4;9.249999;;;;;;;8.95;82.49707;94868.5;;;;
2022/09/25 02:15:13;;;;;;;10.4;9.249999;;;;;;;8.95;82.49707;94868.5;;;;
2022/09/25 02:16:18;;;;;;;10.5;8.9;;;;;;;8.86;82.57715;94874.11;;;;
2022/09/25 02:20:30;;;;;;;10.5;8.9;;;;;;;8.86;82.57715;94874.11;;;;
2022/09/25 02:21:34;;;;;;;10.5;8.9;;;;;;;8.86;82.57715;94874.11;;;;
2022/09/25 02:22:44;;;;;;;10.5;8.9;;;;;;;8.86;82.57715;94874.11;;;;
2022/09/25 02:23:46;;;;;;;10.5;8.9;;;;;;;8.86;82.57715;94874.11;;;;
2022/09/25 02:24:55;;;;;;;10.5;8.9;;;;;;;8.86;82.57715;94874.11;;;;
2022/09/25 02:26:03;;;;;;;10.5;8.9;;;;;;;8.86;82.57715;94874.11;;;;
2022/09/25 02:27:05;;;;;;;11.2;10;;;;;;;8.78;82.69141;94887.03;;;;
2022/09/25 02:28:06;;;;;;;11.2;10;;;;;;;8.78;82.69141;94887.03;;;;
2022/09/25 02:29:07;;;;;;;11.2;10;;;;;;;8.78;82.69141;94887.03;;;;
2022/09/25 02:30:10;;;;;;;11.2;10;;;;;;;8.78;82.69141;94887.03;;;;
2022/09/25 02:31:11;;;;;;;11.2;10;;;;;;;8.78;82.69141;94887.03;;;;
2022/09/25 02:32:14;;;;;;;11.2;10;;;;;;;8.78;82.69141;94887.03;;;;
2022/09/25 02:33:17;;;;;;;11.2;10;;;;;;;8.78;82.69141;94887.03;;;;
2022/09/25 02:34:17;;;;;;;11.2;10;;;;;;;8.78;82.69141;94887.03;;;;
2022/09/25 02:35:18;;;;;;;11.2;10;;;;;;;8.78;82.69141;94887.03;;;;
2022/09/25 02:36:20;;;;;;;11.2;10;;;;;;;8.78;82.69141;94887.03;;;;
2022/09/25 02:37:21;;;;;;;13.55;11.8;;;;;;;8.89;82.86035;94896.09;;;;
2022/09/25 02:38:21;;;;;;;13.55;11.8;;;;;;;8.89;82.86035;94896.09;;;;
2022/09/25 02:39:22;;;;;;;13.55;11.8;;;;;;;8.89;82.86035;94896.09;;;;
2022/09/25 02:40:27;;;;;;;13.55;11.8;;;;;;;8.89;82.86035;94896.09;;;;
2022/09/25 02:41:36;;;;;;;13.55;11.8;;;;;;;8.89;82.86035;94896.09;;;;
2022/09/25 02:42:50;;;;;;;13.55;11.8;;;;;;;8.89;82.86035;94896.09;;;;
2022/09/25 02:43:59;;;;;;;13.55;11.8;;;;;;;8.89;82.86035;94896.09;;;;
2022/09/25 02:45:09;;;;;;;13.55;11.8;;;;;;;8.89;82.86035;94896.09;;;;
2022/09/25 02:46:18;;;;;;;13.55;11.8;;;;;;;8.89;82.86035;94896.09;;;;
2022/09/25 02:47:24;;;;;;;13.55;11.8;;;;;;;8.89;82.86035;94896.09;;;;
2022/09/25 02:48:34;;;;;;;15.75;11.85;;;;;;;9.09;82.79102;94880.57;;;;
2022/09/25 02:49:49;;;;;;;15.75;11.85;;;;;;;9.09;82.79102;94880.57;;;;
2022/09/25 02:51:01;;;;;;;15.75;11.85;;;;;;;9.09;82.79102;94880.57;;;;
2022/09/25 02:52:09;;;;;;;15.75;11.85;;;;;;;9.09;82.79102;94880.57;;;;
2022/09/25 02:53:13;;;;;;;15.75;11.85;;;;;;;9.09;82.79102;94880.57;;;;
2022/09/25 02:54:20;;;;;;;15.75;11.85;;;;;;;9.09;82.79102;94880.57;;;;
2022/09/25 02:55:28;;;;;;;15.75;11.85;;;;;;;9.09;82.79102;94880.57;;;;
2022/09/25 02:56:37;;;;;;;15.75;11.85;;;;;;;9.09;82.79102;94880.57;;;;
2022/09/25 02:57:44;;;;;;;15.75;11.85;;;;;;;9.09;82.79102;94880.57;;;;
2022/09/25 02:58:51;;;;;;;14.35;12.45;;;;;;;9.27;82.69824;94871.84;;;;
2022/09/25 02:59:56;;;;;;;14.35;12.45;;;;;;;9.27;82.69824;94871.84;;;;
2022/09/25 03:00:59;;;;;;;14.35;12.45;;;;;;;9.27;82.69824;94871.84;;;;
2022/09/25 03:02:03;;;;;;;14.35;12.45;;;;;;;9.27;82.69824;94871.84;;;;
2022/09/25 03:03:06;;;;;;;14.35;12.45;;;;;;;9.27;82.69824;94871.84;;;;
2022/09/25 03:04:11;;;;;;;14.35;12.45;;;;;;;9.27;82.69824;94871.84;;;;
2022/09/25 03:05:15;;;;;;;14.35;12.45;;;;;;;9.27;82.69824;94871.84;;;;
2022/09/25 03:06:16;;;;;;;14.35;12.45;;;;;;;9.27;82.69824;94871.84;;;;
2022/09/25 03:07:18;;;;;;;14.35;12.45;;;;;;;9.27;82.69824;94871.84;;;;
2022/09/25 03:08:51;;;;;;;14.35;12.45;;;;;;;9.27;82.69824;94871.84;;;;
2022/09/25 03:09:55;;;;;;;13.2;11.3;;;;;;;9.44;82.4834;94857.5;;;;
2022/09/25 03:10:58;;;;;;;13.2;11.3;;;;;;;9.44;82.4834;94857.5;;;;
2022/09/25 03:11:58;;;;;;;13.2;11.3;;;;;;;9.44;82.4834;94857.5;;;;
2022/09/25 03:13:00;;;;;;;13.2;11.3;;;;;;;9.44;82.4834;94857.5;;;;
2022/09/25 03:14:12;;;;;;;13.2;11.3;;;;;;;9.44;82.4834;94857.5;;;;
2022/09/25 03:15:13;;;;;;;13.2;11.3;;;;;;;9.44;82.4834;94857.5;;;;
2022/09/25 03:16:13;;;;;;;13.2;11.3;;;;;;;9.44;82.4834;94857.5;;;;
2022/09/25 03:17:20;;;;;;;13.2;11.3;;;;;;;9.44;82.4834;94857.5;;;;
2022/09/25 03:18:21;;;;;;;13.2;11.3;;;;;;;9.44;82.4834;94857.5;;;;
2022/09/25 03:19:22;;;;;;;13.2;11.3;;;;;;;9.44;82.4834;94857.5;;;;
2022/09/25 03:20:26;;;;;;;10.75;9.65;;;;;;;9.41;82.29688;94848.69;;;;
2022/09/25 03:21:27;;;;;;;10.75;9.65;;;;;;;9.41;82.29688;94848.69;;;;
2022/09/25 03:22:27;;;;;;;10.75;9.65;;;;;;;9.41;82.29688;94848.69;;;;
2022/09/25 03:23:28;;;;;;;10.75;9.65;;;;;;;9.41;82.29688;94848.69;;;;
2022/09/25 03:24:29;;;;;;;10.75;9.65;;;;;;;9.41;82.29688;94848.69;;;;
2022/09/25 03:25:30;;;;;;;10.75;9.65;;;;;;;9.41;82.29688;94848.69;;;;
2022/09/25 03:26:30;;;;;;;10.75;9.65;;;;;;;9.41;82.29688;94848.69;;;;
2022/09/25 03:27:31;;;;;;;10.75;9.65;;;;;;;9.41;82.29688;94848.69;;;;
2022/09/25 03:28:31;;;;;;;10.75;9.65;;;;;;;9.41;82.29688;94848.69;;;;
2022/09/25 03:29:33;;;;;;;10.75;9.65;;;;;;;9.41;82.29688;94848.69;;;;
2022/09/25 03:30:33;;;;;;;11.8;9.85;;;;;;;9.36;82.39453;94841.52;;;;
2022/09/25 03:31:34;;;;;;;11.8;9.85;;;;;;;9.36;82.39453;94841.52;;;;
2022/09/25 03:32:34;;;;;;;11.8;9.85;;;;;;;9.36;82.39453;94841.52;;;;
2022/09/25 03:33:35;;;;;;;11.8;9.85;;;;;;;9.36;82.39453;94841.52;;;;
2022/09/25 03:34:36;;;;;;;11.8;9.85;;;;;;;9.36;82.39453;94841.52;;;;
2022/09/25 03:35:37;;;;;;;11.8;9.85;;;;;;;9.36;82.39453;94841.52;;;;
2022/09/25 03:36:38;;;;;;;11.8;9.85;;;;;;;9.36;82.39453;94841.52;;;;
2022/09/25 03:37:40;;;;;;;11.8;9.85;;;;;;;9.36;82.39453;94841.52;;;;
2022/09/25 03:38:40;;;;;;;11.8;9.85;;;;;;;9.36;82.39453;94841.52;;;;
2022/09/25 03:39:42;;;;;;;11.8;9.85;;;;;;;9.36;82.39453;94841.52;;;;
2022/09/25 03:40:42;;;;;;;11.8;9.85;;;;;;;9.36;82.39453;94841.52;;;;
2022/09/25 03:41:43;;;;;;;12.4;9.15;;;;;;;9.24;82.39258;94849.82;;;;
2022/09/25 03:42:44;;;;;;;12.4;9.15;;;;;;;9.24;82.39258;94849.82;;;;
2022/09/25 03:43:46;;;;;;;12.4;9.15;;;;;;;9.24;82.39258;94849.82;;;;
2022/09/25 03:44:49;;;;;;;12.4;9.15;;;;;;;9.24;82.39258;94849.82;;;;
2022/09/25 03:45:49;;;;;;;12.4;9.15;;;;;;;9.24;82.39258;94849.82;;;;
2022/09/25 03:46:50;;;;;;;12.4;9.15;;;;;;;9.24;82.39258;94849.82;;;;
2022/09/25 03:47:50;;;;;;;12.4;9.15;;;;;;;9.24;82.39258;94849.82;;;;
2022/09/25 03:48:51;;;;;;;12.4;9.15;;;;;;;9.24;82.39258;94849.82;;;;
2022/09/25 03:49:52;;;;;;;12.4;9.15;;;;;;;9.24;82.39258;94849.82;;;;
2022/09/25 03:50:55;;;;;;;12.4;9.15;;;;;;;9.24;82.39258;94849.82;;;;
2022/09/25 03:51:55;;;;;;;12.55;10.05;;;;;;;9.12;82.67871;94843.23;;;;
2022/09/25 03:52:56;;;;;;;12.55;10.05;;;;;;;9.12;82.67871;94843.23;;;;
2022/09/25 03:53:56;;;;;;;12.55;10.05;;;;;;;9.12;82.67871;94843.23;;;;
2022/09/25 03:54:57;;;;;;;12.55;10.05;;;;;;;9.12;82.67871;94843.23;;;;
2022/09/25 03:55:58;;;;;;;12.55;10.05;;;;;;;9.12;82.67871;94843.23;;;;
2022/09/25 03:56:59;;;;;;;12.55;10.05;;;;;;;9.12;82.67871;94843.23;;;;
2022/09/25 03:57:59;;;;;;;12.55;10.05;;;;;;;9.12;82.67871;94843.23;;;;
2022/09/25 03:59:00;;;;;;;12.55;10.05;;;;;;;9.12;82.67871;94843.23;;;;
2022/09/25 04:00:02;;;;;;;12.55;10.05;;;;;;;9.12;82.67871;94843.23;;;;
2022/09/25 04:01:03;;;;;;;12.55;10.05;;;;;;;9.12;82.67871;94843.23;;;;
2022/09/25 04:02:04;;;;;;;12.55;10.05;;;;;;;9.12;82.67871;94843.23;;;;
2022/09/25 04:03:05;;;;;;;11.35;9.9;;;;;;;9.16;82.73047;94837.84;;;;
2022/09/25 04:04:06;;;;;;;11.35;9.9;;;;;;;9.16;82.73047;94837.84;;;;
2022/09/25 04:05:06;;;;;;;11.35;9.9;;;;;;;9.16;82.73047;94837.84;;;;
2022/09/25 04:06:07;;;;;;;11.35;9.9;;;;;;;9.16;82.73047;94837.84;;;;
2022/09/25 04:07:09;;;;;;;11.35;9.9;;;;;;;9.16;82.73047;94837.84;;;;
2022/09/25 04:08:09;;;;;;;11.35;9.9;;;;;;;9.16;82.73047;94837.84;;;;
2022/09/25 04:09:10;;;;;;;11.35;9.9;;;;;;;9.16;82.73047;94837.84;;;;
2022/09/25 04:10:10;;;;;;;11.35;9.9;;;;;;;9.16;82.73047;94837.84;;;;
2022/09/25 04:11:11;;;;;;;11.35;9.9;;;;;;;9.16;82.73047;94837.84;;;;
2022/09/25 04:12:12;;;;;;;11.35;9.9;;;;;;;9.16;82.73047;94837.84;;;;
2022/09/25 04:13:13;;;;;;;12.15;9.749999;;;;;;;9.13;82.6709;94828.92;;;;
2022/09/25 04:14:13;;;;;;;12.15;9.749999;;;;;;;9.13;82.6709;94828.92;;;;
2022/09/25 04:15:14;;;;;;;12.15;9.749999;;;;;;;9.13;82.6709;94828.92;;;;
2022/09/25 04:16:15;;;;;;;12.15;9.749999;;;;;;;9.13;82.6709;94828.92;;;;
2022/09/25 04:17:17;;;;;;;12.15;9.749999;;;;;;;9.13;82.6709;94828.92;;;;
2022/09/25 04:18:17;;;;;;;12.15;9.749999;;;;;;;9.13;82.6709;94828.92;;;;
2022/09/25 04:19:18;;;;;;;12.15;9.749999;;;;;;;9.13;82.6709;94828.92;;;;
2022/09/25 04:20:18;;;;;;;12.15;9.749999;;;;;;;9.13;82.6709;94828.92;;;;
2022/09/25 04:21:19;;;;;;;12.15;9.749999;;;;;;;9.13;82.6709;94828.92;;;;
2022/09/25 04:22:20;;;;;;;12.15;9.749999;;;;;;;9.13;82.6709;94828.92;;;;
2022/09/25 04:23:20;;;;;;;12.15;9.749999;;;;;;;9.13;82.6709;94828.92;;;;
2022/09/25 04:24:53;;;;;;;12.45;11.15;;;;;;;9.16;82.76172;94825.56;;;;
2022/09/25 04:25:54;;;;;;;12.45;11.15;;;;;;;9.16;82.76172;94825.56;;;;
2022/09/25 04:26:54;;;;;;;12.45;11.15;;;;;;;9.16;82.76172;94825.56;;;;
2022/09/25 04:27:55;;;;;;;12.45;11.15;;;;;;;9.16;82.76172;94825.56;;;;
2022/09/25 04:28:56;;;;;;;12.45;11.15;;;;;;;9.16;82.76172;94825.56;;;;
2022/09/25 04:29:57;;;;;;;12.45;11.15;;;;;;;9.16;82.76172;94825.56;;;;
2022/09/25 04:30:57;;;;;;;12.45;11.15;;;;;;;9.16;82.76172;94825.56;;;;
2022/09/25 04:37:12;;;;;;;14.25;11.85;;;;;;;9.32;82.78125;94836.36;;;;
2022/09/25 04:38:13;;;;;;;14.25;11.85;;;;;;;9.32;82.78125;94836.36;;;;
2022/09/25 04:39:18;;;;;;;14.25;11.85;;;;;;;9.32;82.78125;94836.36;;;;
2022/09/25 04:40:19;;;;;;;14.25;11.85;;;;;;;9.32;82.78125;94836.36;;;;
2022/09/25 04:41:20;;;;;;;14.25;11.85;;;;;;;9.32;82.78125;94836.36;;;;
2022/09/25 04:42:23;;;;;;;14.25;11.85;;;;;;;9.32;82.78125;94836.36;;;;
2022/09/25 04:43:25;;;;;;;14.25;11.85;;;;;;;9.32;82.78125;94836.36;;;;
2022/09/25 04:44:28;;;;;;;14.25;11.85;;;;;;;9.32;82.78125;94836.36;;;;
2022/09/25 04:45:29;;;;;;;13.8;11.35;;;;;;;9.43;82.68359;94834.88;;;;
2022/09/25 04:46:32;;;;;;;13.8;11.35;;;;;;;9.43;82.68359;94834.88;;;;
2022/09/25 04:47:33;;;;;;;13.8;11.35;;;;;;;9.43;82.68359;94834.88;;;;
2022/09/25 04:48:34;;;;;;;13.8;11.35;;;;;;;9.43;82.68359;94834.88;;;;
2022/09/25 04:49:37;;;;;;;13.8;11.35;;;;;;;9.43;82.68359;94834.88;;;;
2022/09/25 04:50:38;;;;;;;13.8;11.35;;;;;;;9.43;82.68359;94834.88;;;;
2022/09/25 04:51:38;;;;;;;13.8;11.35;;;;;;;9.43;82.68359;94834.88;;;;
2022/09/25 04:52:38;;;;;;;13.8;11.35;;;;;;;9.43;82.68359;94834.88;;;;
2022/09/25 04:53:39;;;;;;;13.8;11.35;;;;;;;9.43;82.68359;94834.88;;;;
2022/09/25 04:54:39;;;;;;;13.8;11.35;;;;;;;9.43;82.68359;94834.88;;;;
2022/09/25 04:55:40;;;;;;;13.8;11.35;;;;;;;9.43;82.68359;94834.88;;;;
2022/09/25 04:56:41;;;;;;;13.7;11.4;;;;;;;9.61;82.77441;94829.53;;;;
2022/09/25 04:57:42;;;;;;;13.7;11.4;;;;;;;9.61;82.77441;94829.53;;;;
2022/09/25 04:58:42;;;;;;;13.7;11.4;;;;;;;9.61;82.77441;94829.53;;;;
2022/09/25 04:59:44;;;;;;;13.7;11.4;;;;;;;9.61;82.77441;94829.53;;;;
2022/09/25 05:00:45;;;;;;;13.7;11.4;;;;;;;9.61;82.77441;94829.53;;;;
2022/09/25 05:01:46;;;;;;;13.7;11.4;;;;;;;9.61;82.77441;94829.53;;;;
2022/09/25 05:02:46;;;;;;;13.7;11.4;;;;;;;9.61;82.77441;94829.53;;;;
2022/09/25 05:03:48;;;;;;;13.7;11.4;;;;;;;9.61;82.77441;94829.53;;;;
2022/09/25 05:04:50;;;;;;;13.7;11.4;;;;;;;9.61;82.77441;94829.53;;;;
2022/09/25 05:05:50;;;;;;;13.7;11.4;;;;;;;9.61;82.77441;94829.53;;;;
2022/09/25 05:06:51;;;;;;;12.85;11.5;;;;;;;9.75;82.71387;94843.01;;;;
2022/09/25 05:07:51;;;;;;;12.85;11.5;;;;;;;9.75;82.71387;94843.01;;;;
2022/09/25 05:08:52;;;;;;;12.85;11.5;;;;;;;9.75;82.71387;94843.01;;;;
2022/09/25 05:09:53;;;;;;;12.85;11.5;;;;;;;9.75;82.71387;94843.01;;;;
2022/09/25 05:10:53;;;;;;;12.85;11.5;;;;;;;9.75;82.71387;94843.01;;;;
2022/09/25 05:11:54;;;;;;;12.85;11.5;;;;;;;9.75;82.71387;94843.01;;;;
2022/09/25 05:12:55;;;;;;;12.85;11.5;;;;;;;9.75;82.71387;94843.01;;;;
2022/09/25 05:13:57;;;;;;;12.85;11.5;;;;;;;9.75;82.71387;94843.01;;;;
2022/09/25 05:14:57;;;;;;;12.85;11.5;;;;;;;9.75;82.71387;94843.01;;;;
2022/09/25 05:15:58;;;;;;;12.85;11.5;;;;;;;9.75;82.71387;94843.01;;;;
2022/09/25 05:17:00;;;;;;;12.85;11.5;;;;;;;9.75;82.71387;94843.01;;;;
2022/09/25 05:18:00;;;;;;;13.3;11.15;;;;;;;9.81;82.86328;94837.27;;;;
2022/09/25 05:19:02;;;;;;;13.3;11.15;;;;;;;9.81;82.86328;94837.27;;;;
2022/09/25 05:20:03;;;;;;;13.3;11.15;;;;;;;9.81;82.86328;94837.27;;;;
2022/09/25 05:21:04;;;;;;;13.3;11.15;;;;;;;9.81;82.86328;94837.27;;;;
2022/09/25 05:22:04;;;;;;;13.3;11.15;;;;;;;9.81;82.86328;94837.27;;;;
2022/09/25 05:23:05;;;;;;;13.3;11.15;;;;;;;9.81;82.86328;94837.27;;;;
2022/09/25 05:24:07;;;;;;;13.3;11.15;;;;;;;9.81;82.86328;94837.27;;;;
2022/09/25 05:25:08;;;;;;;13.3;11.15;;;;;;;9.81;82.86328;94837.27;;;;
2022/09/25 05:26:09;;;;;;;13.3;11.15;;;;;;;9.81;82.86328;94837.27;;;;
2022/09/25 05:27:11;;;;;;;13.3;11.15;;;;;;;9.81;82.86328;94837.27;;;;
2022/09/25 05:28:12;;;;;;;12.55;10.35;;;;;;;9.91;82.85059;94831.88;;;;
2022/09/25 05:29:13;;;;;;;12.55;10.35;;;;;;;9.91;82.85059;94831.88;;;;
2022/09/25 05:30:13;;;;;;;12.55;10.35;;;;;;;9.91;82.85059;94831.88;;;;
2022/09/25 05:31:15;;;;;;;12.55;10.35;;;;;;;9.91;82.85059;94831.88;;;;
2022/09/25 05:32:17;;;;;;;12.55;10.35;;;;;;;9.91;82.85059;94831.88;;;;
2022/09/25 05:33:18;;;;;;;12.55;10.35;;;;;;;9.91;82.85059;94831.88;;;;
2022/09/25 05:34:19;;;;;;;12.55;10.35;;;;;;;9.91;82.85059;94831.88;;;;
2022/09/25 05:35:20;;;;;;;12.55;10.35;;;;;;;9.91;82.85059;94831.88;;;;
2022/09/25 05:36:22;;;;;;;12.55;10.35;;;;;;;9.91;82.85059;94831.88;;;;
2022/09/25 05:37:23;;;;;;;12.55;10.35;;;;;;;9.91;82.85059;94831.88;;;;
2022/09/25 05:38:23;;;;;;;12.55;10.35;;;;;;;9.91;82.85059;94831.88;;;;
2022/09/25 05:39:24;;;;;;;11.3;9.499999;;;;;;;10.04;82.89746;94849.32;;;;
2022/09/25 05:40:24;;;;;;;11.3;9.499999;;;;;;;10.04;82.89746;94849.32;;;;
2022/09/25 05:41:25;;;;;;;11.3;9.499999;;;;;;;10.04;82.89746;94849.32;;;;
2022/09/25 05:42:27;;;;;;;11.3;9.499999;;;;;;;10.04;82.89746;94849.32;;;;
2022/09/25 05:43:29;;;;;;;11.3;9.499999;;;;;;;10.04;82.89746;94849.32;;;;
2022/09/25 05:44:30;;;;;;;11.3;9.499999;;;;;;;10.04;82.89746;94849.32;;;;
2022/09/25 05:45:30;;;;;;;11.3;9.499999;;;;;;;10.04;82.89746;94849.32;;;;
2022/09/25 05:46:31;;;;;;;11.3;9.499999;;;;;;;10.04;82.89746;94849.32;;;;
2022/09/25 05:47:31;;;;;;;11.3;9.499999;;;;;;;10.04;82.89746;94849.32;;;;
2022/09/25 05:48:32;;;;;;;11.3;9.499999;;;;;;;10.04;82.89746;94849.32;;;;
2022/09/25 05:49:32;;;;;;;10.8;9.700001;;;;;;;10.12;82.84668;94844.69;;;;
2022/09/25 05:50:33;;;;;;;10.8;9.700001;;;;;;;10.12;82.84668;94844.69;;;;
2022/09/25 05:51:34;;;;;;;10.8;9.700001;;;;;;;10.12;82.84668;94844.69;;;;
2022/09/25 05:52:34;;;;;;;10.8;9.700001;;;;;;;10.12;82.84668;94844.69;;;;
2022/09/25 05:53:36;;;;;;;10.8;9.700001;;;;;;;10.12;82.84668;94844.69;;;;
2022/09/25 05:54:37;;;;;;;10.8;9.700001;;;;;;;10.12;82.84668;94844.69;;;;
2022/09/25 05:55:37;;;;;;;10.8;9.700001;;;;;;;10.12;82.84668;94844.69;;;;
2022/09/25 05:56:38;;;;;;;10.8;9.700001;;;;;;;10.12;82.84668;94844.69;;;;
2022/09/25 05:57:38;;;;;;;10.8;9.700001;;;;;;;10.12;82.84668;94844.69;;;;
2022/09/25 05:58:39;;;;;;;10.8;9.700001;;;;;;;10.12;82.84668;94844.69;;;;
2022/09/25 05:59:39;;;;;;;10.8;9.700001;;;;;;;10.12;82.84668;94844.69;;;;
2022/09/25 06:00:40;;;;;;;11.35;10.15;;;;;;;10.32;82.98242;94846.11;;;;
2022/09/25 06:01:41;;;;;;;11.35;10.15;;;;;;;10.32;82.98242;94846.11;;;;
2022/09/25 06:02:41;;;;;;;11.35;10.15;;;;;;;10.32;82.98242;94846.11;;;;
2022/09/25 06:03:42;;;;;;;11.35;10.15;;;;;;;10.32;82.98242;94846.11;;;;